Springerton, Illinois
Current Conditions -  °F | °C
As of 1:15 AM on Sunday 23 Nov 2014 (Local Time) from KCUL Reporting Station
Clear Clear  
Wind Chill: 43°   Ceiling: Unl
Heat Index: 47°   Visibility: 10mi
Dew Point: 39°   Wind: 7mph
Humidity: 75%   Direction: 130°SE
Pressure: 29.94"   Gusts: NA
Location:  38.18°N, 88.35°W
Report Text: KCUL 230715Z AUTO 13006KT 10SM CLR 08/04 A2994 RMK AO2 T00820040
Loading
Personal Weather Stations






























Interactive Weather Map New forecast layout! Learn more

10-Day Weather Forecast

Advertisements
Track Severe Weather on mobile